Time;durP1;ratioP1;P1;durP2;ratioP2;P2;SDS_P1;SDS_P2;PMS_P1;PMS_P2;Temp;Humidity;BMP_temperature;BMP_pressure;BME280_temperature;BME280_humidity;BME280_pressure;Samples;Min_cycle;Max_cycle;Signal;HPM_P1;HPM_P2
2022/01/24 00:00:26;;;;;;;13.80;8.27;;;-3.90;99.90;;;;;;5207880;28;20033;-71
2022/01/24 00:02:57;;;;;;;17.55;8.45;;;-3.40;99.90;;;;;;5207555;28;20064;-71
2022/01/24 00:05:28;;;;;;;14.75;8.35;;;-3.80;99.90;;;;;;5207837;28;20041;-71
2022/01/24 00:07:58;;;;;;;15.27;8.05;;;-3.90;99.90;;;;;;5208009;28;20432;-71
2022/01/24 00:10:30;;;;;;;17.98;9.73;;;-3.80;99.90;;;;;;5207818;28;20051;-71
2022/01/24 00:26:57;;;;;;;13.82;7.97;;;-1.90;99.90;;;;;;5207935;28;20389;-71
2022/01/24 00:29:28;;;;;;;12.43;7.30;;;-2.00;99.90;;;;;;5207432;28;20022;-71
2022/01/24 00:31:59;;;;;;;14.43;7.95;;;-1.80;99.90;;;;;;5207265;28;20028;-71
2022/01/24 00:34:30;;;;;;;12.18;7.47;;;-2.00;99.90;;;;;;5207580;28;20523;-71
2022/01/24 00:37:01;;;;;;;15.52;7.78;;;-2.00;99.90;;;;;;5207343;28;20380;-71
2022/01/24 00:39:32;;;;;;;13.80;7.80;;;-2.10;99.90;;;;;;5207213;28;20032;-70
2022/01/24 00:42:27;;;;;;;13.95;7.90;;;-1.90;99.90;;;;;;5206972;28;20160;-71
2022/01/24 00:53:50;;;;;;;12.82;8.02;;;-1.70;99.90;;;;;;5207048;28;20087;-71
2022/01/24 00:56:21;;;;;;;12.90;8.10;;;-1.90;99.90;;;;;;5207065;28;20035;-70
2022/01/24 00:58:52;;;;;;;12.80;7.95;;;-2.00;99.90;;;;;;5206908;28;20097;-71
2022/01/24 01:01:22;;;;;;;16.75;8.38;;;-1.80;99.90;;;;;;5206847;28;20025;-70
2022/01/24 01:03:53;;;;;;;12.70;7.93;;;-1.70;99.90;;;;;;5206692;28;20049;-71
2022/01/24 01:06:24;;;;;;;13.88;8.73;;;-1.60;99.90;;;;;;5206959;28;20129;-70
2022/01/24 01:20:15;;;;;;;15.52;8.25;;;-1.60;99.90;;;;;;5206900;28;20032;-70
2022/01/24 01:22:46;;;;;;;11.57;7.25;;;-1.60;99.90;;;;;;5206556;28;20373;-71
2022/01/24 01:25:17;;;;;;;12.32;7.47;;;-1.70;99.90;;;;;;5206521;28;20029;-70
2022/01/24 01:27:50;;;;;;;15.07;7.45;;;-1.60;99.90;;;;;;5206039;28;20033;-70
2022/01/24 01:30:32;;;;;;;15.48;7.85;;;-1.60;99.90;;;;;;5206770;28;20472;-70
2022/01/24 01:33:20;;;;;;;14.45;7.75;;;-1.80;99.90;;;;;;5206489;28;20534;-70
2022/01/24 01:36:05;;;;;;;16.42;8.50;;;-1.70;99.90;;;;;;5206669;28;20038;-70
2022/01/24 01:58:14;;;;;;;14.43;8.45;;;-2.20;99.90;;;;;;5206441;28;20033;-70
2022/01/24 02:00:50;;;;;;;18.80;10.65;;;-2.00;99.90;;;;;;5206144;28;20067;-69
2022/01/24 02:03:23;;;;;;;14.82;8.25;;;-2.40;99.90;;;;;;5205955;28;20049;-70
2022/01/24 02:05:54;;;;;;;13.75;8.00;;;-2.20;99.90;;;;;;5206153;28;20044;-70
2022/01/24 02:08:27;;;;;;;14.65;8.18;;;-2.10;99.90;;;;;;5206263;28;20033;-69
2022/01/24 02:10:59;;;;;;;33.50;14.13;;;-2.40;99.90;;;;;;5206340;28;20475;-70
2022/01/24 02:13:31;;;;;;;15.15;8.43;;;-2.10;99.90;;;;;;5206253;28;20026;-70
2022/01/24 02:16:30;;;;;;;11.93;7.75;;;-2.00;99.90;;;;;;5206193;28;20369;-70
2022/01/24 02:24:43;;;;;;;14.18;8.55;;;-1.90;99.90;;;;;;5206053;28;20037;-70
2022/01/24 02:27:15;;;;;;;12.98;8.25;;;-1.90;99.90;;;;;;5206120;28;20026;-70
2022/01/24 02:29:55;;;;;;;17.40;8.70;;;-1.80;99.90;;;;;;5206018;28;20029;-70
2022/01/24 02:32:26;;;;;;;12.82;7.93;;;-1.90;99.90;;;;;;5206032;28;20469;-70
2022/01/24 02:34:56;;;;;;;16.05;8.30;;;-1.70;99.90;;;;;;5206006;28;20075;-71
2022/01/24 02:37:27;;;;;;;20.33;10.73;;;-1.90;99.90;;;;;;5205894;28;20377;-70
2022/01/24 02:40:07;;;;;;;16.98;9.35;;;-1.70;99.90;;;;;;5206918;28;20021;-70
2022/01/24 02:48:26;;;;;;;14.95;8.23;;;-1.60;99.90;;;;;;5210018;28;20037;-70
2022/01/24 02:53:52;;;;;;;13.27;8.77;;;-1.70;99.90;;;;;;5209711;28;20032;-70
2022/01/24 02:56:23;;;;;;;15.57;9.43;;;-1.80;99.90;;;;;;5209491;28;20380;-71
2022/01/24 02:58:54;;;;;;;16.55;8.65;;;-1.70;99.90;;;;;;5209211;28;20108;-71
2022/01/24 03:01:24;;;;;;;16.42;9.98;;;-1.90;99.90;;;;;;5209057;28;20148;-71
2022/01/24 03:03:55;;;;;;;17.83;9.43;;;-1.80;99.90;;;;;;5208948;28;20053;-71
2022/01/24 03:06:26;;;;;;;15.50;9.25;;;-1.90;99.90;;;;;;5209153;28;20039;-71
2022/01/24 03:08:57;;;;;;;21.48;12.20;;;-1.80;99.90;;;;;;5209059;28;20366;-71
2022/01/24 03:11:47;;;;;;;15.93;9.32;;;-1.70;99.90;;;;;;5208993;28;20034;-71
2022/01/24 03:14:20;;;;;;;16.23;9.30;;;-1.90;99.90;;;;;;5209025;28;20029;-71
2022/01/24 03:16:52;;;;;;;19.45;9.68;;;-2.00;99.90;;;;;;5209116;28;20396;-71
2022/01/24 03:19:23;;;;;;;19.05;10.48;;;-2.00;99.90;;;;;;5208950;28;20026;-71
2022/01/24 03:21:54;;;;;;;20.42;10.80;;;-2.00;99.90;;;;;;5208850;28;20366;-71
2022/01/24 03:24:25;;;;;;;16.67;9.57;;;-1.80;99.90;;;;;;5208640;28;20034;-71
2022/01/24 03:26:56;;;;;;;16.25;10.02;;;-1.80;99.90;;;;;;5208791;28;20087;-71
2022/01/24 03:29:26;;;;;;;21.67;12.25;;;-1.90;99.90;;;;;;5208589;28;20039;-71
2022/01/24 03:31:57;;;;;;;29.67;18.38;;;-2.00;99.90;;;;;;5208493;28;20021;-71
2022/01/24 03:34:28;;;;;;;36.55;21.30;;;-2.20;99.90;;;;;;5208681;28;20413;-71
2022/01/24 03:36:59;;;;;;;24.17;14.82;;;-2.10;99.90;;;;;;5208589;28;20079;-71
2022/01/24 03:39:30;;;;;;;18.67;10.88;;;-2.50;99.90;;;;;;5208580;28;20026;-70
2022/01/24 03:42:00;;;;;;;16.35;10.13;;;-2.20;99.90;;;;;;5208310;28;20083;-70
2022/01/24 03:44:31;;;;;;;19.60;11.70;;;-2.10;99.90;;;;;;5208321;28;20061;-70
2022/01/24 03:47:19;;;;;;;16.48;9.75;;;-1.80;99.90;;;;;;5208366;28;20032;-71
2022/01/24 03:49:52;;;;;;;34.00;19.55;;;-2.00;99.90;;;;;;5208283;28;20017;-71
2022/01/24 03:52:23;;;;;;;20.20;11.80;;;-1.70;99.90;;;;;;5207814;28;20033;-70
2022/01/24 03:54:54;;;;;;;15.73;8.68;;;-1.70;99.90;;;;;;5207988;28;20032;-71
2022/01/24 03:57:26;;;;;;;14.98;7.72;;;-1.50;99.90;;;;;;5208069;28;20018;-70
2022/01/24 03:59:57;;;;;;;12.93;7.78;;;-1.40;99.90;;;;;;5208134;28;20077;-70
2022/01/24 04:02:28;;;;;;;13.43;7.85;;;-1.50;99.90;;;;;;5207640;28;20050;-70
2022/01/24 04:04:59;;;;;;;11.93;7.25;;;-1.50;99.90;;;;;;5207885;28;20044;-70
2022/01/24 04:07:31;;;;;;;16.25;8.55;;;-1.40;99.90;;;;;;5208148;28;20021;-70
2022/01/24 04:10:06;;;;;;;14.27;8.57;;;-1.40;99.90;;;;;;5207833;28;20032;-70
2022/01/24 04:12:39;;;;;;;16.95;8.75;;;-1.50;99.90;;;;;;5208011;28;20384;-70
2022/01/24 04:15:27;;;;;;;13.80;7.75;;;-1.40;99.90;;;;;;5207917;28;20072;-70
2022/01/24 04:18:12;;;;;;;13.20;7.53;;;-1.10;99.90;;;;;;5207908;28;20092;-70
2022/01/24 04:23:35;;;;;;;12.20;8.18;;;-1.40;99.90;;;;;;5207932;28;20056;-70
2022/01/24 04:26:06;;;;;;;12.63;7.65;;;-1.40;99.90;;;;;;5207560;28;20037;-70
2022/01/24 04:28:37;;;;;;;14.35;7.97;;;-1.50;99.90;;;;;;5207566;28;20487;-70
2022/01/24 04:31:08;;;;;;;12.90;8.10;;;-1.30;99.90;;;;;;5207620;28;20429;-70
2022/01/24 04:33:39;;;;;;;14.65;8.05;;;-1.50;99.90;;;;;;5207382;28;20417;-70
2022/01/24 04:36:10;;;;;;;12.18;7.43;;;-1.40;99.90;;;;;;5207460;28;20036;-70
2022/01/24 04:38:41;;;;;;;11.43;7.20;;;-1.40;99.90;;;;;;5207299;28;20021;-70
2022/01/24 04:41:17;;;;;;;13.45;7.15;;;-1.40;99.90;;;;;;5207323;28;20025;-71
2022/01/24 04:43:56;;;;;;;15.45;9.27;;;-1.30;99.90;;;;;;5207262;28;20029;-70
2022/01/24 04:56:58;;;;;;;17.90;9.60;;;-1.70;99.90;;;;;;5207147;28;20068;-70
2022/01/24 04:59:29;;;;;;;18.67;10.20;;;-1.80;99.90;;;;;;5207029;28;20050;-70
2022/01/24 05:02:00;;;;;;;22.02;12.40;;;-1.80;99.90;;;;;;5206109;28;20485;-70
2022/01/24 05:04:31;;;;;;;18.60;11.48;;;-1.70;99.90;;;;;;5206622;28;20061;-70
2022/01/24 05:07:03;;;;;;;18.58;10.15;;;-1.60;99.90;;;;;;5206943;28;20056;-70
2022/01/24 05:09:39;;;;;;;17.77;11.02;;;-1.70;99.90;;;;;;5206836;28;20025;-71
2022/01/24 05:12:27;;;;;;;22.15;13.05;;;-1.70;99.90;;;;;;5206814;28;20504;-70
2022/01/24 05:26:05;;;;;;;17.63;11.18;;;-1.80;99.90;;;;;;5206649;28;20443;-70
2022/01/24 05:28:36;;;;;;;23.02;11.77;;;-1.90;99.90;;;;;;5206629;28;20100;-71
2022/01/24 05:31:07;;;;;;;31.92;20.58;;;-1.80;99.90;;;;;;5206566;28;20064;-71
2022/01/24 05:33:38;;;;;;;18.75;12.23;;;-1.70;99.90;;;;;;5206500;28;20061;-70
2022/01/24 05:36:09;;;;;;;20.02;11.75;;;-1.70;99.90;;;;;;5206483;28;20025;-70
2022/01/24 05:38:40;;;;;;;21.23;11.18;;;-1.80;99.90;;;;;;5206640;28;20030;-70
2022/01/24 05:41:10;;;;;;;18.05;10.63;;;-1.60;99.90;;;;;;5206309;28;20013;-71
2022/01/24 05:43:42;;;;;;;19.13;12.02;;;-1.60;99.90;;;;;;5206466;28;20105;-71
2022/01/24 05:46:12;;;;;;;17.73;11.32;;;-1.50;99.90;;;;;;5206407;28;20033;-71
2022/01/24 05:48:43;;;;;;;21.77;11.68;;;-1.70;99.90;;;;;;5206496;28;20380;-71
2022/01/24 05:51:14;;;;;;;20.83;10.15;;;-1.70;99.90;;;;;;5206500;28;20021;-70
2022/01/24 05:53:45;;;;;;;18.70;11.93;;;-1.60;99.90;;;;;;5206174;28;20026;-70
2022/01/24 05:56:16;;;;;;;19.05;11.02;;;-1.50;99.90;;;;;;5206421;28;20488;-70
2022/01/24 05:58:47;;;;;;;14.98;9.00;;;-1.50;99.90;;;;;;5206282;28;20026;-71
2022/01/24 06:01:18;;;;;;;16.70;10.07;;;-1.40;99.90;;;;;;5206160;28;20071;-70
2022/01/24 06:03:49;;;;;;;18.17;10.02;;;-1.40;99.90;;;;;;5206173;28;20136;-71
2022/01/24 06:06:20;;;;;;;19.30;10.15;;;-1.20;99.90;;;;;;5206186;28;20041;-70
2022/01/24 06:08:50;;;;;;;24.23;10.73;;;-1.30;99.90;;;;;;5206398;28;20022;-70
2022/01/24 06:11:24;;;;;;;16.80;9.63;;;-1.30;99.90;;;;;;5206150;28;20036;-70
2022/01/24 06:13:57;;;;;;;21.40;10.45;;;-1.30;99.90;;;;;;5207228;28;20480;-71
2022/01/24 06:16:28;;;;;;;19.48;10.70;;;-1.20;99.90;;;;;;5210109;28;20082;-71
2022/01/24 06:18:59;;;;;;;22.45;10.63;;;-1.20;99.90;;;;;;5210117;28;20021;-71
2022/01/24 06:21:30;;;;;;;18.65;11.80;;;-1.10;99.90;;;;;;5209886;28;20028;-71
2022/01/24 06:24:01;;;;;;;17.20;9.98;;;-1.00;99.90;;;;;;5209812;28;20385;-70
2022/01/24 06:26:32;;;;;;;19.20;10.45;;;-1.10;99.90;;;;;;5209902;28;20042;-71
2022/01/24 06:29:03;;;;;;;19.40;10.25;;;-1.10;99.90;;;;;;5209840;28;20041;-71
2022/01/24 06:31:34;;;;;;;21.65;10.80;;;-1.20;99.90;;;;;;5209562;28;20022;-71
2022/01/24 06:34:06;;;;;;;24.15;11.45;;;-1.00;99.90;;;;;;5209786;28;20029;-70
2022/01/24 06:36:37;;;;;;;18.90;9.35;;;-1.20;99.90;;;;;;5209801;28;20065;-70
2022/01/24 06:39:10;;;;;;;18.85;9.65;;;-1.10;99.90;;;;;;5209599;28;20060;-70
2022/01/24 06:41:43;;;;;;;20.98;10.73;;;-1.10;99.90;;;;;;5209483;28;20115;-70
2022/01/24 06:44:14;;;;;;;22.05;11.02;;;-1.30;99.90;;;;;;5209549;28;20021;-70
2022/01/24 06:46:44;;;;;;;19.23;10.20;;;-1.20;99.90;;;;;;5209636;28;20381;-71
2022/01/24 06:49:15;;;;;;;17.10;9.68;;;-1.30;99.90;;;;;;5209611;28;20044;-71
2022/01/24 06:51:46;;;;;;;19.65;10.95;;;-1.10;99.90;;;;;;5209319;28;20424;-70
2022/01/24 06:56:50;;;;;;;23.65;10.23;;;-1.40;99.90;;;;;;5208897;28;20030;-70
2022/01/24 06:59:21;;;;;;;20.35;9.23;;;-1.20;99.90;;;;;;5209337;28;20039;-70
2022/01/24 07:04:24;;;;;;;20.58;11.40;;;-1.20;99.90;;;;;;4921101;28;20038;-71
2022/01/24 07:06:55;;;;;;;17.77;10.13;;;-1.30;99.90;;;;;;5191360;28;20037;-71
2022/01/24 07:11:56;;;;;;;18.98;9.02;;;-1.10;99.90;;;;;;5208499;28;20025;-70
2022/01/24 07:14:27;;;;;;;19.15;10.43;;;-1.20;99.90;;;;;;5209084;28;20413;-70
2022/01/24 07:19:30;;;;;;;17.92;9.82;;;-1.00;99.90;;;;;;5208929;28;20025;-71
2022/01/24 07:22:05;;;;;;;21.70;9.98;;;-1.00;99.90;;;;;;5208863;28;20026;-71
2022/01/24 07:24:36;;;;;;;18.30;9.82;;;-0.90;99.90;;;;;;5208724;28;20030;-70
2022/01/24 07:27:07;;;;;;;17.80;9.75;;;-0.80;99.90;;;;;;5208086;28;20421;-71
2022/01/24 07:29:38;;;;;;;17.50;9.88;;;-0.80;99.90;;;;;;5208703;28;20369;-70
2022/01/24 07:32:09;;;;;;;18.52;10.13;;;-0.90;99.90;;;;;;5208554;28;20024;-70
2022/01/24 07:34:40;;;;;;;20.38;10.32;;;-0.80;99.90;;;;;;5208771;28;20030;-70
2022/01/24 07:37:11;;;;;;;18.23;10.88;;;-0.80;99.90;;;;;;5208399;28;20369;-71
2022/01/24 07:39:42;;;;;;;25.05;12.52;;;-0.80;99.90;;;;;;5208453;28;20242;-70
2022/01/24 07:42:18;;;;;;;20.00;11.00;;;-0.80;99.90;;;;;;5208485;28;20049;-71
2022/01/24 07:44:49;;;;;;;21.35;10.82;;;-0.60;99.90;;;;;;5208469;28;20029;-70
2022/01/24 07:47:20;;;;;;;23.05;11.57;;;-0.50;99.90;;;;;;5208320;28;20032;-71
2022/01/24 07:49:50;;;;;;;22.30;11.15;;;-0.50;99.90;;;;;;5208290;28;20116;-71
2022/01/24 07:52:21;;;;;;;20.67;11.00;;;-0.20;99.90;;;;;;5208245;28;20028;-71
2022/01/24 07:54:52;;;;;;;17.90;9.93;;;-0.30;99.90;;;;;;5208202;28;20055;-71
2022/01/24 07:57:23;;;;;;;19.52;10.55;;;-0.20;99.90;;;;;;5208086;28;20018;-71
2022/01/24 07:59:54;;;;;;;17.63;10.60;;;-0.30;99.90;;;;;;5208049;28;20037;-70
2022/01/24 08:02:25;;;;;;;18.85;10.45;;;-0.20;99.90;;;;;;5207844;28;20045;-70
2022/01/24 08:04:55;;;;;;;28.83;12.90;;;-0.10;99.90;;;;;;5208051;28;20045;-71
2022/01/24 08:07:26;;;;;;;21.65;11.63;;;-0.20;99.90;;;;;;5208051;28;20024;-71
2022/01/24 08:09:57;;;;;;;19.33;10.30;;;-0.20;99.90;;;;;;5207913;28;20087;-70
2022/01/24 08:12:28;;;;;;;23.48;12.00;;;-0.20;99.90;;;;;;5207970;28;20026;-71
2022/01/24 08:15:00;;;;;;;20.88;11.82;;;-0.20;99.90;;;;;;5207828;28;20027;-71
2022/01/24 08:17:31;;;;;;;21.70;11.50;;;-0.30;99.90;;;;;;5207649;28;20034;-71
2022/01/24 08:20:02;;;;;;;21.52;10.75;;;-0.50;99.90;;;;;;5207710;28;20083;-71
2022/01/24 08:22:33;;;;;;;24.13;11.60;;;-0.60;99.90;;;;;;5207600;28;20026;-71
2022/01/24 08:25:05;;;;;;;20.10;11.32;;;-0.60;99.90;;;;;;5207584;28;20040;-71
2022/01/24 08:27:37;;;;;;;22.70;10.98;;;-0.50;99.90;;;;;;5207692;28;20083;-71
2022/01/24 08:30:14;;;;;;;24.75;11.93;;;-0.60;99.90;;;;;;5207508;28;20014;-71
2022/01/24 08:32:46;;;;;;;20.05;11.25;;;-0.60;99.90;;;;;;5207455;28;20033;-71
2022/01/24 08:35:20;;;;;;;25.42;12.30;;;-0.80;99.90;;;;;;5207342;28;20099;-71
2022/01/24 08:37:51;;;;;;;22.77;11.75;;;-0.60;99.90;;;;;;5207307;28;20430;-71
2022/01/24 08:40:25;;;;;;;35.13;17.40;;;-0.60;99.90;;;;;;5207216;28;20104;-71
2022/01/24 08:43:01;;;;;;;32.88;16.65;;;-0.60;99.90;;;;;;5207422;28;20035;-71
2022/01/24 08:45:50;;;;;;;25.27;9.82;;;-0.60;99.90;;;;;;5207231;28;20041;-71
2022/01/24 08:48:21;;;;;;;27.88;14.68;;;-0.70;99.90;;;;;;5207283;28;20018;-71
2022/01/24 08:50:55;;;;;;;24.27;13.50;;;-0.60;99.90;;;;;;5207305;28;20037;-71
2022/01/24 08:53:31;;;;;;;19.33;10.18;;;-0.70;99.90;;;;;;5207137;28;20111;-71
2022/01/24 08:56:04;;;;;;;23.33;11.35;;;-0.50;99.90;;;;;;5207113;28;20113;-71
2022/01/24 08:58:35;;;;;;;22.67;11.25;;;-0.40;99.90;;;;;;5206921;28;20032;-71
2022/01/24 09:01:06;;;;;;;20.98;10.77;;;-0.20;99.90;;;;;;5206994;28;20030;-71
2022/01/24 09:03:39;;;;;;;20.52;10.27;;;-0.20;99.90;;;;;;5206669;28;20060;-71
2022/01/24 09:06:11;;;;;;;21.27;10.75;;;-0.20;99.90;;;;;;5206897;28;20065;-71
2022/01/24 09:08:44;;;;;;;20.73;11.13;;;-0.30;99.90;;;;;;5206801;28;20104;-71
2022/01/24 09:11:15;;;;;;;22.27;11.52;;;0.00;99.90;;;;;;5206743;28;20540;-71
2022/01/24 09:13:46;;;;;;;19.65;10.50;;;-0.20;99.90;;;;;;5206780;28;20108;-71
2022/01/24 09:16:16;;;;;;;19.35;11.32;;;-0.20;99.90;;;;;;5206824;28;20029;-71
2022/01/24 09:18:48;;;;;;;21.23;11.20;;;-0.20;99.90;;;;;;5206636;28;20040;-71
2022/01/24 09:21:19;;;;;;;22.65;11.70;;;-0.30;99.90;;;;;;5206697;28;20385;-71
2022/01/24 09:23:50;;;;;;;20.33;11.55;;;0.00;99.90;;;;;;5189019;28;20099;-71
2022/01/24 09:26:21;;;;;;;25.05;12.30;;;0.10;99.90;;;;;;5206625;28;20029;-71
2022/01/24 09:28:52;;;;;;;20.35;11.57;;;0.30;99.90;;;;;;5206611;28;20029;-71
2022/01/24 09:31:23;;;;;;;23.55;10.98;;;0.10;99.90;;;;;;5206506;28;20033;-71
2022/01/24 09:33:55;;;;;;;22.63;12.27;;;0.10;99.90;;;;;;5206622;28;20416;-71
2022/01/24 09:36:26;;;;;;;18.17;10.52;;;0.60;99.90;;;;;;5206545;28;20385;-70
2022/01/24 09:38:57;;;;;;;16.58;11.23;;;0.30;99.90;;;;;;5206658;28;20108;-71
2022/01/24 09:41:28;;;;;;;17.50;9.68;;;0.30;99.90;;;;;;5206388;28;20569;-70
2022/01/24 09:43:58;;;;;;;20.95;12.32;;;0.30;99.90;;;;;;5206648;28;20029;-71
2022/01/24 09:46:30;;;;;;;18.88;10.52;;;-0.10;99.90;;;;;;5206670;28;20112;-70
2022/01/24 09:49:00;;;;;;;19.10;9.52;;;0.00;99.90;;;;;;5190041;28;20362;-71
2022/01/24 09:51:32;;;;;;;16.05;8.85;;;-0.20;99.90;;;;;;5210554;28;20029;-71
2022/01/24 09:54:03;;;;;;;12.35;8.07;;;-0.20;99.90;;;;;;5210405;28;20036;-71
2022/01/24 09:56:34;;;;;;;12.82;8.02;;;-0.30;99.90;;;;;;5210582;28;20025;-71
2022/01/24 09:59:05;;;;;;;9.15;5.45;;;-0.50;99.90;;;;;;5210232;28;20021;-71
2022/01/24 10:01:37;;;;;;;12.48;7.05;;;-0.60;99.90;;;;;;5210283;28;20059;-71
2022/01/24 10:04:20;;;;;;;12.45;7.22;;;-0.40;99.90;;;;;;5210197;28;20546;-71
2022/01/24 10:07:01;;;;;;;10.95;5.97;;;-0.40;99.90;;;;;;5210418;28;20092;-71
2022/01/24 10:09:36;;;;;;;;;;;-0.50;99.90;;;;;;5210682;28;20018;-71
2022/01/24 10:12:17;;;;;;;11.48;6.95;;;-0.60;99.90;;;;;;5210306;28;19905;-71
2022/01/24 10:17:42;;;;;;;13.73;7.43;;;-0.70;99.90;;;;;;5210453;28;20091;-71
2022/01/24 10:20:21;;;;;;;12.68;6.13;;;-0.60;99.90;;;;;;5210050;28;20055;-71
2022/01/24 10:23:07;;;;;;;12.77;5.97;;;-0.60;99.90;;;;;;5209955;28;20047;-71
2022/01/24 10:25:51;;;;;;;11.05;6.55;;;-0.70;99.90;;;;;;5209940;28;20103;-71
2022/01/24 10:28:26;;;;;;;9.75;5.78;;;-0.90;99.90;;;;;;5210061;28;20072;-71
2022/01/24 10:31:06;;;;;;;12.82;7.22;;;-0.80;99.90;;;;;;5209804;28;20078;-71
2022/01/24 10:34:08;;;;;;;13.10;7.10;;;-0.80;99.90;;;;;;5209777;28;20124;-71
2022/01/24 10:36:42;;;;;;;10.93;6.30;;;-0.90;99.90;;;;;;5209838;28;20560;-71
2022/01/24 10:39:22;;;;;;;10.80;6.65;;;-0.80;99.90;;;;;;5209662;28;20076;-71
2022/01/24 10:45:14;;;;;;;10.35;5.97;;;-0.90;99.90;;;;;;5209573;28;20044;-71
2022/01/24 10:47:50;;;;;;;10.23;5.72;;;-0.90;99.90;;;;;;5209804;28;20385;-71
2022/01/24 10:50:29;;;;;;;14.10;8.20;;;-1.00;99.90;;;;;;5209478;28;20028;-71
2022/01/24 10:53:13;;;;;;;13.02;7.28;;;-0.80;99.90;;;;;;5209425;28;20034;-71
2022/01/24 10:55:45;;;;;;;10.30;5.38;;;-0.90;99.90;;;;;;5209513;28;20028;-71
2022/01/24 10:58:18;;;;;;;12.48;6.78;;;-1.00;99.90;;;;;;5209368;28;20092;-71
2022/01/24 11:00:50;;;;;;;12.30;7.35;;;-1.10;99.90;;;;;;5207961;28;20079;-71
2022/01/24 11:03:21;;;;;;;16.10;9.43;;;-0.90;99.90;;;;;;5208981;28;20119;-71
2022/01/24 11:05:53;;;;;;;13.55;8.02;;;-1.10;99.90;;;;;;5209482;28;20041;-71
2022/01/24 11:08:25;;;;;;;13.48;8.35;;;-1.10;99.90;;;;;;5209162;28;20354;-70
2022/01/24 11:10:57;;;;;;;14.35;8.02;;;-1.20;99.90;;;;;;5209011;28;20052;-71
2022/01/24 11:13:31;;;;;;;17.30;10.02;;;-1.20;99.90;;;;;;5209063;28;20032;-70
2022/01/24 11:16:02;;;;;;;14.90;9.00;;;-1.10;99.90;;;;;;5208927;28;20078;-71
2022/01/24 11:18:34;;;;;;;15.65;8.77;;;-1.00;99.90;;;;;;5208965;28;20049;-71
2022/01/24 11:21:12;;;;;;;15.68;8.95;;;-1.20;99.90;;;;;;5210063;28;20025;-70
2022/01/24 11:23:44;;;;;;;13.38;6.88;;;-1.00;99.90;;;;;;5209287;28;20033;-71
2022/01/24 11:26:15;;;;;;;14.43;7.75;;;-1.10;99.90;;;;;;5209281;28;20494;-72
2022/01/24 11:28:46;;;;;;;14.05;8.20;;;-1.20;99.90;;;;;;5208864;28;20373;-71
2022/01/24 11:31:25;;;;;;;12.70;7.68;;;-1.10;99.90;;;;;;5208678;28;20021;-72
2022/01/24 11:34:04;;;;;;;16.42;9.45;;;-1.10;99.90;;;;;;5190859;28;20191;-71
2022/01/24 11:36:38;;;;;;;14.15;7.82;;;-1.20;99.90;;;;;;5222576;28;20021;-71
2022/01/24 11:39:09;;;;;;;14.02;8.23;;;-1.10;99.90;;;;;;5228514;28;20037;-72
2022/01/24 11:41:41;;;;;;;19.75;10.25;;;-1.30;99.90;;;;;;5227748;28;20032;-71
2022/01/24 11:44:16;;;;;;;17.77;9.68;;;-1.20;99.90;;;;;;5229080;28;20021;-71
2022/01/24 11:46:52;;;;;;;16.70;8.65;;;-1.10;99.90;;;;;;5229051;28;20062;-71
2022/01/24 11:49:35;;;;;;;18.77;9.70;;;-1.20;99.90;;;;;;5211153;28;20064;-71
2022/01/24 11:52:14;;;;;;;19.65;10.45;;;-1.20;99.90;;;;;;5229007;28;20037;-72
2022/01/24 11:57:22;;;;;;;14.95;8.35;;;-1.10;99.90;;;;;;5228804;28;20032;-71
2022/01/24 12:00:05;;;;;;;17.02;9.95;;;-1.20;99.90;;;;;;5227871;28;20392;-73
2022/01/24 12:02:58;;;;;;;19.27;11.05;;;-1.20;99.90;;;;;;5228225;28;20128;-71
2022/01/24 12:05:41;;;;;;;19.10;10.20;;;-1.20;99.90;;;;;;5228632;28;20040;-71
2022/01/24 12:08:26;;;;;;;23.98;11.98;;;-1.20;99.90;;;;;;5228618;28;20476;-71
2022/01/24 12:11:24;;;;;;;22.15;12.30;;;-1.10;99.90;;;;;;5228573;28;20025;-71
2022/01/24 12:14:01;;;;;;;24.15;12.13;;;-1.20;99.90;;;;;;5228555;28;20024;-71
2022/01/24 12:16:37;;;;;;;26.52;13.77;;;-1.20;99.90;;;;;;5228463;28;20017;-71
2022/01/24 12:19:10;;;;;;;25.75;13.80;;;-1.20;99.90;;;;;;5210293;28;20024;-71
2022/01/24 12:21:42;;;;;;;25.55;13.00;;;-1.30;99.90;;;;;;5227960;28;20016;-71
2022/01/24 12:24:14;;;;;;;22.25;12.38;;;-1.40;99.90;;;;;;5227763;28;20079;-72
2022/01/24 12:26:48;;;;;;;27.80;15.15;;;-1.20;99.90;;;;;;5226945;28;20029;-72
2022/01/24 12:29:21;;;;;;;26.90;14.45;;;-1.30;99.90;;;;;;5228174;28;20020;-71
2022/01/24 12:31:56;;;;;;;25.48;14.07;;;-1.20;99.90;;;;;;5228065;28;20129;-72
2022/01/24 12:34:38;;;;;;;25.15;14.10;;;-1.20;99.90;;;;;;5210299;28;20025;-72
2022/01/24 12:37:29;;;;;;;24.85;15.25;;;-1.30;99.90;;;;;;5228073;28;20087;-71
2022/01/24 12:40:06;;;;;;;26.05;14.20;;;-1.20;99.90;;;;;;5228002;28;20025;-72
2022/01/24 12:42:48;;;;;;;21.52;13.00;;;-1.20;99.90;;;;;;5228067;28;20029;-71
2022/01/24 12:48:16;;;;;;;27.50;15.20;;;-1.40;99.90;;;;;;5228009;28;20439;-71
2022/01/24 12:50:51;;;;;;;23.00;13.95;;;-1.20;99.90;;;;;;5227824;28;20098;-71
2022/01/24 12:53:22;;;;;;;26.70;15.18;;;-1.30;99.90;;;;;;5227702;28;20032;-71
2022/01/24 12:55:59;;;;;;;26.98;15.73;;;-1.30;99.90;;;;;;5227737;28;20021;-71
2022/01/24 12:58:45;;;;;;;28.98;15.32;;;-1.20;99.90;;;;;;5227536;28;20371;-71
2022/01/24 13:01:33;;;;;;;23.25;13.63;;;-1.20;99.90;;;;;;5227756;28;20155;-71
2022/01/24 13:04:11;;;;;;;26.00;14.52;;;-1.20;99.90;;;;;;5227486;28;20547;-71
2022/01/24 13:06:46;;;;;;;29.42;16.20;;;-1.10;99.90;;;;;;5227514;28;20040;-71
2022/01/24 13:09:19;;;;;;;30.60;18.77;;;-1.10;99.90;;;;;;5227653;28;20025;-71
2022/01/24 13:11:55;;;;;;;31.85;17.45;;;-1.20;99.90;;;;;;5227587;28;20025;-71
2022/01/24 13:14:39;;;;;;;28.20;16.65;;;-1.30;99.90;;;;;;5227517;28;20025;-72
2022/01/24 13:23:00;;;;;;;26.05;15.25;;;-1.30;99.90;;;;;;5227261;28;20396;-72
2022/01/24 13:25:36;;;;;;;33.58;17.80;;;-1.30;99.90;;;;;;5227098;28;20114;-72
2022/01/24 13:28:12;;;;;;;34.08;17.48;;;-1.20;99.90;;;;;;5227291;28;20127;-72
2022/01/24 13:31:02;;;;;;;33.97;17.52;;;-1.30;99.90;;;;;;5227161;28;20032;-72
2022/01/24 13:33:37;;;;;;;36.00;18.98;;;-1.20;99.90;;;;;;5227183;28;20087;-72
2022/01/24 13:36:09;;;;;;;30.75;17.95;;;-1.10;99.90;;;;;;5227202;28;20032;-72
2022/01/24 13:38:44;;;;;;;34.15;18.48;;;-1.20;99.90;;;;;;5227071;28;20036;-72
2022/01/24 13:41:23;;;;;;;31.10;17.60;;;-1.10;99.90;;;;;;5209380;28;20025;-72
2022/01/24 13:43:58;;;;;;;31.48;17.50;;;-1.20;99.90;;;;;;5227236;28;20511;-72
2022/01/24 13:46:38;;;;;;;31.88;16.45;;;-1.20;99.90;;;;;;5227080;28;20037;-72
2022/01/24 13:49:16;;;;;;;25.27;14.05;;;-1.10;99.90;;;;;;5227122;28;20364;-72
2022/01/24 13:51:52;;;;;;;17.63;10.13;;;-1.10;99.90;;;;;;5227122;28;20112;-71
2022/01/24 13:54:29;;;;;;;18.63;9.43;;;-1.10;99.90;;;;;;5227029;28;20457;-72
2022/01/24 13:57:04;;;;;;;19.10;7.47;;;-1.30;99.90;;;;;;5227037;28;20036;-71
2022/01/24 13:59:36;;;;;;;15.35;7.75;;;-1.30;99.90;;;;;;5226970;28;20104;-72
2022/01/24 14:02:15;;;;;;;15.15;7.18;;;-1.30;99.90;;;;;;5224586;28;20043;-72
2022/01/24 14:04:52;;;;;;;15.50;7.38;;;-1.30;99.90;;;;;;5208720;28;20092;-73
2022/01/24 14:07:37;;;;;;;16.13;7.95;;;-1.40;99.90;;;;;;5225367;28;20030;-72
2022/01/24 14:10:13;;;;;;;17.98;8.68;;;-1.40;99.90;;;;;;5226958;28;20381;-72
2022/01/24 14:12:51;;;;;;;17.02;9.18;;;-1.20;99.90;;;;;;5226778;28;20032;-72
2022/01/24 14:18:33;;;;;;;16.45;8.63;;;-1.00;99.90;;;;;;5161939;28;20026;-72
2022/01/24 14:21:13;;;;;;;18.67;9.00;;;-1.10;99.90;;;;;;5215960;28;20033;-72
2022/01/24 14:23:51;;;;;;;16.17;7.95;;;-1.10;99.90;;;;;;5226595;28;20088;-72
2022/01/24 14:26:25;;;;;;;16.70;7.65;;;-1.10;99.90;;;;;;5226798;28;20029;-71
2022/01/24 14:29:12;;;;;;;17.67;7.95;;;-1.10;99.90;;;;;;5222477;28;20486;-72
2022/01/24 14:31:45;;;;;;;19.40;8.90;;;-1.10;99.90;;;;;;5206597;28;20029;-72
2022/01/24 14:34:18;;;;;;;17.10;8.07;;;-1.10;99.90;;;;;;5206691;28;20034;-73
2022/01/24 14:36:56;;;;;;;18.00;9.50;;;-1.10;99.90;;;;;;5210340;28;20021;-72
2022/01/24 14:39:26;;;;;;;18.88;9.07;;;-1.10;99.90;;;;;;5210202;28;20033;-72
2022/01/24 14:41:58;;;;;;;20.42;8.48;;;-1.00;99.90;;;;;;5211762;28;20434;-72
2022/01/24 14:47:18;;;;;;;19.45;9.77;;;-0.90;99.90;;;;;;5213969;28;20026;-73
2022/01/24 14:49:49;;;;;;;19.10;9.60;;;-0.90;99.90;;;;;;5210059;28;20018;-72
2022/01/24 14:52:22;;;;;;;21.73;9.52;;;-1.00;99.90;;;;;;5209510;28;20026;-72
2022/01/24 14:54:53;;;;;;;18.45;8.50;;;-1.10;99.90;;;;;;5209447;28;20089;-72
2022/01/24 14:57:24;;;;;;;17.75;10.07;;;-1.10;99.90;;;;;;5209338;28;20032;-72
2022/01/24 14:59:55;;;;;;;20.30;9.88;;;-1.00;99.90;;;;;;5209406;28;20035;-72
2022/01/24 15:02:27;;;;;;;20.08;8.98;;;-1.10;99.90;;;;;;5209119;28;20104;-72
2022/01/24 15:04:57;;;;;;;21.15;9.90;;;-1.10;99.90;;;;;;5209410;28;20457;-72
2022/01/24 15:07:28;;;;;;;22.00;10.60;;;-1.00;99.90;;;;;;5209238;28;20104;-72
2022/01/24 15:09:59;;;;;;;29.60;12.73;;;-1.00;99.90;;;;;;5209306;28;20465;-72
2022/01/24 15:12:30;;;;;;;22.73;11.27;;;-1.00;99.90;;;;;;5209339;28;20037;-72